Columbia Regional Airport
KCOU : now visible

Airfield :











YOU CAN JOIN US ON...

 
LOGIN :

Register | Disclaimer

   EN    FR    IT 

 









Legend :    VFR   Marginal VFR   IFR   Intensive IFR   Very Intensive IFR
Visi :
Ceiling :
>= 8 km
>= 3000ft
5 to 8 km
1000 to 3000 ft
1500m to 5 km
500 to 1000 ft
800 to 1500m
200 to 500 ft
< 800m
< 200 ft
Symbols :   Thunderstorms  Fog  Heavy snow  Heavy precipitations  Wind > 20 kt






- Airport Elevation : 889 ft
- IATA code : COU


KCOU - Columbia Regional

CURRENT METAR :
  • 260621Z AUTO 17012KT 10SM VCTS FEW047 FEW060 23/19 A2972 RMK AO2 LTG DSNT SW-N T02280189 $

EXPIRED METARs :
  • 260554Z AUTO 17010KT 10SM FEW027 22/18 A2971 RMK AO2 LTG DSNT W AND NW SLP053 T02220178 10250 20217 402610133 55016 $
  • 260454Z AUTO 13013G18KT 10SM CLR 22/17 A2971 RMK AO2 SLP053 T02220167 $
  • 260354Z AUTO 13010KT 10SM CLR 22/15 A2973 RMK AO2 SLP059 T02220150 $
  • 260254Z AUTO 11011KT 10SM CLR 22/14 A2976 RMK AO2 SLP071 T02170139 58007 $
  • 260154Z 11007KT 10SM CLR 22/13 A2978 RMK AO2 SLP076 T02220133 $

TAF KCOU
Valid from the 26 at 06:00 until the 27 at 06:00 UTC


260546Z 2606/2706 12012KT P6SM OVC250
TEMPO 2606/2607 27020G50KT 2SM +TSRA BR OVC015CB
FM260800 16010G18KT 6SM SHRA BR VCTS BKN060CB
TEMPO 2611/2613 2SM +TSRA BR OVC006CB
FM261400 18012G21KT P6SM BKN035
FM261800 23011KT P6SM BKN050
FM262300 28008KT P6SM BKN100
KZKC FIR / North America



MET'MAP, your aeronautical weather chart ! - Copyright ORBIFLY December 2007 - Disclaimer

ORBIFLY MET'MAP TEAM :

Programming & Development : Alexandra Zaïnal
Original concept : Baudouin d'Aumeries
Technical & hardware support : Manuel Goepfert
Assistance : Marc-Olivier Méhu




SOURCES & CREDITS :

   NOAA       Earth
Advisory